sensor_id;sensor_type;location;lat;lon;timestamp;P1;durP1;ratioP1;P2;durP2;ratioP2
38208;SDS011;24016;52.102;11.584;2023-03-05T00:02:01;5.75;;;1.20;;
38208;SDS011;24016;52.102;11.584;2023-03-05T00:04:26;7.32;;;1.95;;
38208;SDS011;24016;52.102;11.584;2023-03-05T00:06:52;4.75;;;1.60;;
38208;SDS011;24016;52.102;11.584;2023-03-05T00:09:19;6.38;;;1.27;;
38208;SDS011;24016;52.102;11.584;2023-03-05T00:11:45;5.18;;;1.52;;
38208;SDS011;24016;52.102;11.584;2023-03-05T00:14:10;6.88;;;1.42;;
38208;SDS011;24016;52.102;11.584;2023-03-05T00:16:36;5.97;;;1.40;;
38208;SDS011;24016;52.102;11.584;2023-03-05T00:19:02;4.50;;;1.30;;
38208;SDS011;24016;52.102;11.584;2023-03-05T00:21:29;3.47;;;1.10;;
38208;SDS011;24016;52.102;11.584;2023-03-05T00:23:57;7.10;;;1.58;;
38208;SDS011;24016;52.102;11.584;2023-03-05T00:26:25;5.45;;;1.67;;
38208;SDS011;24016;52.102;11.584;2023-03-05T00:28:51;9.57;;;1.40;;
38208;SDS011;24016;52.102;11.584;2023-03-05T00:31:18;6.43;;;1.95;;
38208;SDS011;24016;52.102;11.584;2023-03-05T00:33:45;5.30;;;1.40;;
38208;SDS011;24016;52.102;11.584;2023-03-05T00:36:15;7.32;;;1.42;;
38208;SDS011;24016;52.102;11.584;2023-03-05T00:38:40;4.22;;;1.20;;
38208;SDS011;24016;52.102;11.584;2023-03-05T00:41:07;4.10;;;1.38;;
38208;SDS011;24016;52.102;11.584;2023-03-05T00:43:32;5.60;;;1.58;;
38208;SDS011;24016;52.102;11.584;2023-03-05T00:45:58;3.78;;;1.33;;
38208;SDS011;24016;52.102;11.584;2023-03-05T00:48:23;4.88;;;1.20;;
38208;SDS011;24016;52.102;11.584;2023-03-05T00:50:49;3.75;;;1.30;;
38208;SDS011;24016;52.102;11.584;2023-03-05T00:53:15;4.95;;;1.25;;
38208;SDS011;24016;52.102;11.584;2023-03-05T00:55:41;5.65;;;1.42;;
38208;SDS011;24016;52.102;11.584;2023-03-05T00:58:07;4.18;;;1.45;;
38208;SDS011;24016;52.102;11.584;2023-03-05T01:00:32;4.43;;;1.50;;
38208;SDS011;24016;52.102;11.584;2023-03-05T01:02:58;5.82;;;1.90;;
38208;SDS011;24016;52.102;11.584;2023-03-05T01:05:23;4.82;;;1.23;;
38208;SDS011;24016;52.102;11.584;2023-03-05T01:07:52;8.13;;;2.00;;
38208;SDS011;24016;52.102;11.584;2023-03-05T01:10:18;9.75;;;2.03;;
38208;SDS011;24016;52.102;11.584;2023-03-05T01:12:44;4.05;;;1.55;;
38208;SDS011;24016;52.102;11.584;2023-03-05T01:15:10;7.70;;;2.08;;
38208;SDS011;24016;52.102;11.584;2023-03-05T01:17:35;5.00;;;1.75;;
38208;SDS011;24016;52.102;11.584;2023-03-05T01:20:01;6.38;;;1.70;;
38208;SDS011;24016;52.102;11.584;2023-03-05T01:22:27;8.77;;;2.03;;
38208;SDS011;24016;52.102;11.584;2023-03-05T01:24:53;8.75;;;2.58;;
38208;SDS011;24016;52.102;11.584;2023-03-05T01:27:18;9.57;;;2.42;;
38208;SDS011;24016;52.102;11.584;2023-03-05T01:29:44;10.30;;;2.88;;
38208;SDS011;24016;52.102;11.584;2023-03-05T01:32:09;9.65;;;3.03;;
38208;SDS011;24016;52.102;11.584;2023-03-05T01:34:35;6.15;;;2.40;;
38208;SDS011;24016;52.102;11.584;2023-03-05T01:37:02;9.02;;;2.88;;
38208;SDS011;24016;52.102;11.584;2023-03-05T01:39:27;8.95;;;3.08;;
38208;SDS011;24016;52.102;11.584;2023-03-05T01:41:53;11.80;;;3.75;;
38208;SDS011;24016;52.102;11.584;2023-03-05T01:44:22;6.78;;;3.42;;
38208;SDS011;24016;52.102;11.584;2023-03-05T01:46:49;10.95;;;3.70;;
38208;SDS011;24016;52.102;11.584;2023-03-05T01:49:28;9.70;;;3.33;;
38208;SDS011;24016;52.102;11.584;2023-03-05T01:54:36;9.32;;;3.90;;
38208;SDS011;24016;52.102;11.584;2023-03-05T01:57:09;12.25;;;3.88;;
38208;SDS011;24016;52.102;11.584;2023-03-05T01:59:39;12.02;;;4.43;;
38208;SDS011;24016;52.102;11.584;2023-03-05T02:02:08;8.63;;;4.20;;
38208;SDS011;24016;52.102;11.584;2023-03-05T02:04:38;9.00;;;4.10;;
38208;SDS011;24016;52.102;11.584;2023-03-05T02:07:08;10.38;;;4.38;;
38208;SDS011;24016;52.102;11.584;2023-03-05T02:09:38;11.15;;;4.07;;
38208;SDS011;24016;52.102;11.584;2023-03-05T02:12:05;9.93;;;4.22;;
38208;SDS011;24016;52.102;11.584;2023-03-05T02:14:32;6.88;;;3.78;;
38208;SDS011;24016;52.102;11.584;2023-03-05T02:16:58;7.82;;;3.83;;
38208;SDS011;24016;52.102;11.584;2023-03-05T02:19:24;11.07;;;3.90;;
38208;SDS011;24016;52.102;11.584;2023-03-05T02:21:49;10.52;;;3.78;;
38208;SDS011;24016;52.102;11.584;2023-03-05T02:24:16;5.60;;;3.13;;
38208;SDS011;24016;52.102;11.584;2023-03-05T02:26:55;7.25;;;3.20;;
38208;SDS011;24016;52.102;11.584;2023-03-05T02:29:21;9.75;;;3.33;;
38208;SDS011;24016;52.102;11.584;2023-03-05T02:31:48;6.70;;;3.40;;
38208;SDS011;24016;52.102;11.584;2023-03-05T02:34:13;6.13;;;2.88;;
38208;SDS011;24016;52.102;11.584;2023-03-05T02:36:39;8.00;;;3.15;;
38208;SDS011;24016;52.102;11.584;2023-03-05T02:39:04;9.38;;;3.30;;
38208;SDS011;24016;52.102;11.584;2023-03-05T02:41:30;7.50;;;3.25;;
38208;SDS011;24016;52.102;11.584;2023-03-05T02:43:56;8.77;;;3.17;;
38208;SDS011;24016;52.102;11.584;2023-03-05T02:46:21;11.30;;;3.30;;
38208;SDS011;24016;52.102;11.584;2023-03-05T02:48:47;9.20;;;2.90;;
38208;SDS011;24016;52.102;11.584;2023-03-05T02:51:14;6.88;;;3.03;;
38208;SDS011;24016;52.102;11.584;2023-03-05T02:53:40;9.13;;;2.80;;
38208;SDS011;24016;52.102;11.584;2023-03-05T02:56:06;7.97;;;2.97;;
38208;SDS011;24016;52.102;11.584;2023-03-05T02:58:31;7.32;;;2.85;;
38208;SDS011;24016;52.102;11.584;2023-03-05T03:00:57;10.25;;;2.85;;
38208;SDS011;24016;52.102;11.584;2023-03-05T03:03:22;12.52;;;4.20;;
38208;SDS011;24016;52.102;11.584;2023-03-05T03:05:48;8.10;;;3.10;;
38208;SDS011;24016;52.102;11.584;2023-03-05T03:08:13;6.95;;;2.65;;
38208;SDS011;24016;52.102;11.584;2023-03-05T03:10:40;6.60;;;2.70;;
38208;SDS011;24016;52.102;11.584;2023-03-05T03:13:05;6.07;;;2.97;;
38208;SDS011;24016;52.102;11.584;2023-03-05T03:15:30;9.60;;;3.20;;
38208;SDS011;24016;52.102;11.584;2023-03-05T03:17:57;10.43;;;3.13;;
38208;SDS011;24016;52.102;11.584;2023-03-05T03:20:22;9.35;;;3.30;;
38208;SDS011;24016;52.102;11.584;2023-03-05T03:22:48;11.65;;;3.10;;
38208;SDS011;24016;52.102;11.584;2023-03-05T03:25:14;8.40;;;3.53;;
38208;SDS011;24016;52.102;11.584;2023-03-05T03:27:41;8.60;;;3.45;;
38208;SDS011;24016;52.102;11.584;2023-03-05T03:30:07;10.25;;;3.65;;
38208;SDS011;24016;52.102;11.584;2023-03-05T03:32:33;10.60;;;3.30;;
38208;SDS011;24016;52.102;11.584;2023-03-05T03:34:59;12.52;;;3.60;;
38208;SDS011;24016;52.102;11.584;2023-03-05T03:37:25;10.68;;;3.90;;
38208;SDS011;24016;52.102;11.584;2023-03-05T03:39:50;9.93;;;3.92;;
38208;SDS011;24016;52.102;11.584;2023-03-05T03:42:17;7.70;;;3.72;;
38208;SDS011;24016;52.102;11.584;2023-03-05T03:44:43;8.82;;;4.55;;
38208;SDS011;24016;52.102;11.584;2023-03-05T03:47:08;11.68;;;4.25;;
38208;SDS011;24016;52.102;11.584;2023-03-05T03:49:34;9.63;;;4.50;;
38208;SDS011;24016;52.102;11.584;2023-03-05T03:51:59;12.80;;;5.20;;
38208;SDS011;24016;52.102;11.584;2023-03-05T03:54:25;16.27;;;5.90;;
38208;SDS011;24016;52.102;11.584;2023-03-05T03:56:50;12.32;;;5.68;;
38208;SDS011;24016;52.102;11.584;2023-03-05T03:59:16;11.68;;;5.60;;
38208;SDS011;24016;52.102;11.584;2023-03-05T04:01:42;11.82;;;6.10;;
38208;SDS011;24016;52.102;11.584;2023-03-05T04:04:08;18.85;;;6.10;;
38208;SDS011;24016;52.102;11.584;2023-03-05T04:06:35;9.88;;;5.75;;
38208;SDS011;24016;52.102;11.584;2023-03-05T04:09:01;11.57;;;5.78;;
38208;SDS011;24016;52.102;11.584;2023-03-05T04:11:26;9.13;;;6.05;;
38208;SDS011;24016;52.102;11.584;2023-03-05T04:13:52;12.50;;;6.00;;
38208;SDS011;24016;52.102;11.584;2023-03-05T04:16:17;12.18;;;6.18;;
38208;SDS011;24016;52.102;11.584;2023-03-05T04:18:43;10.82;;;6.57;;
38208;SDS011;24016;52.102;11.584;2023-03-05T04:21:09;12.75;;;6.47;;
38208;SDS011;24016;52.102;11.584;2023-03-05T04:23:34;10.15;;;6.53;;
38208;SDS011;24016;52.102;11.584;2023-03-05T04:26:00;14.05;;;7.15;;
38208;SDS011;24016;52.102;11.584;2023-03-05T04:28:26;12.60;;;7.07;;
38208;SDS011;24016;52.102;11.584;2023-03-05T04:30:52;13.98;;;6.68;;
38208;SDS011;24016;52.102;11.584;2023-03-05T04:33:17;10.68;;;6.07;;
38208;SDS011;24016;52.102;11.584;2023-03-05T04:35:43;13.93;;;6.03;;
38208;SDS011;24016;52.102;11.584;2023-03-05T04:38:08;11.57;;;5.65;;
38208;SDS011;24016;52.102;11.584;2023-03-05T04:40:34;9.88;;;5.57;;
38208;SDS011;24016;52.102;11.584;2023-03-05T04:43:00;14.00;;;6.00;;
38208;SDS011;24016;52.102;11.584;2023-03-05T04:45:26;14.07;;;5.80;;
38208;SDS011;24016;52.102;11.584;2023-03-05T04:47:51;11.60;;;5.65;;
38208;SDS011;24016;52.102;11.584;2023-03-05T04:50:17;10.60;;;5.40;;
38208;SDS011;24016;52.102;11.584;2023-03-05T04:52:43;9.10;;;5.10;;
38208;SDS011;24016;52.102;11.584;2023-03-05T04:55:10;13.23;;;4.95;;
38208;SDS011;24016;52.102;11.584;2023-03-05T04:57:36;9.25;;;4.85;;
38208;SDS011;24016;52.102;11.584;2023-03-05T05:00:03;7.30;;;4.30;;
38208;SDS011;24016;52.102;11.584;2023-03-05T05:02:31;6.90;;;4.07;;
38208;SDS011;24016;52.102;11.584;2023-03-05T05:04:57;9.55;;;4.72;;
38208;SDS011;24016;52.102;11.584;2023-03-05T05:07:22;11.30;;;4.43;;
38208;SDS011;24016;52.102;11.584;2023-03-05T05:09:48;11.13;;;4.35;;
38208;SDS011;24016;52.102;11.584;2023-03-05T05:12:13;9.07;;;4.00;;
38208;SDS011;24016;52.102;11.584;2023-03-05T05:14:39;8.13;;;4.07;;
38208;SDS011;24016;52.102;11.584;2023-03-05T05:17:04;6.47;;;3.58;;
38208;SDS011;24016;52.102;11.584;2023-03-05T05:19:31;8.52;;;4.00;;
38208;SDS011;24016;52.102;11.584;2023-03-05T05:21:57;8.32;;;3.88;;
38208;SDS011;24016;52.102;11.584;2023-03-05T05:24:23;8.68;;;3.78;;
38208;SDS011;24016;52.102;11.584;2023-03-05T05:26:48;7.05;;;4.28;;
38208;SDS011;24016;52.102;11.584;2023-03-05T05:29:15;7.35;;;3.72;;
38208;SDS011;24016;52.102;11.584;2023-03-05T05:31:40;11.45;;;4.07;;
38208;SDS011;24016;52.102;11.584;2023-03-05T05:34:06;7.40;;;3.83;;
38208;SDS011;24016;52.102;11.584;2023-03-05T05:36:31;12.20;;;4.50;;
38208;SDS011;24016;52.102;11.584;2023-03-05T05:38:57;9.60;;;4.28;;
38208;SDS011;24016;52.102;11.584;2023-03-05T05:41:23;9.77;;;4.68;;
38208;SDS011;24016;52.102;11.584;2023-03-05T05:43:49;9.93;;;4.45;;
38208;SDS011;24016;52.102;11.584;2023-03-05T05:46:15;12.05;;;5.15;;
38208;SDS011;24016;52.102;11.584;2023-03-05T05:48:42;10.40;;;4.03;;
38208;SDS011;24016;52.102;11.584;2023-03-05T05:51:10;7.53;;;4.05;;
38208;SDS011;24016;52.102;11.584;2023-03-05T05:53:38;7.78;;;4.30;;
38208;SDS011;24016;52.102;11.584;2023-03-05T05:56:05;8.77;;;4.45;;
38208;SDS011;24016;52.102;11.584;2023-03-05T05:58:32;10.20;;;4.25;;
38208;SDS011;24016;52.102;11.584;2023-03-05T06:00:57;13.07;;;4.60;;
38208;SDS011;24016;52.102;11.584;2023-03-05T06:03:23;8.63;;;4.40;;
38208;SDS011;24016;52.102;11.584;2023-03-05T06:05:48;7.60;;;4.65;;
38208;SDS011;24016;52.102;11.584;2023-03-05T06:08:15;10.48;;;4.60;;
38208;SDS011;24016;52.102;11.584;2023-03-05T06:10:41;8.15;;;4.93;;
38208;SDS011;24016;52.102;11.584;2023-03-05T06:13:07;8.48;;;4.63;;
38208;SDS011;24016;52.102;11.584;2023-03-05T06:15:32;12.00;;;5.28;;
38208;SDS011;24016;52.102;11.584;2023-03-05T06:18:00;10.50;;;5.20;;
38208;SDS011;24016;52.102;11.584;2023-03-05T06:20:26;8.70;;;4.93;;
38208;SDS011;24016;52.102;11.584;2023-03-05T06:22:52;10.65;;;4.60;;
38208;SDS011;24016;52.102;11.584;2023-03-05T06:25:18;6.78;;;4.28;;
38208;SDS011;24016;52.102;11.584;2023-03-05T06:27:44;10.30;;;4.88;;
38208;SDS011;24016;52.102;11.584;2023-03-05T06:30:10;11.90;;;5.00;;
38208;SDS011;24016;52.102;11.584;2023-03-05T06:32:36;11.30;;;4.82;;
38208;SDS011;24016;52.102;11.584;2023-03-05T06:35:01;10.45;;;4.53;;
38208;SDS011;24016;52.102;11.584;2023-03-05T06:37:27;7.45;;;3.88;;
38208;SDS011;24016;52.102;11.584;2023-03-05T06:39:53;8.70;;;4.40;;
38208;SDS011;24016;52.102;11.584;2023-03-05T06:42:18;9.88;;;4.45;;
38208;SDS011;24016;52.102;11.584;2023-03-05T06:44:44;9.73;;;4.50;;
38208;SDS011;24016;52.102;11.584;2023-03-05T06:47:10;8.38;;;4.32;;
38208;SDS011;24016;52.102;11.584;2023-03-05T06:49:36;9.82;;;4.30;;
38208;SDS011;24016;52.102;11.584;2023-03-05T06:52:03;9.57;;;4.20;;
38208;SDS011;24016;52.102;11.584;2023-03-05T06:54:29;7.80;;;3.72;;
38208;SDS011;24016;52.102;11.584;2023-03-05T06:56:55;8.43;;;3.17;;
38208;SDS011;24016;52.102;11.584;2023-03-05T06:59:20;7.57;;;3.78;;
38208;SDS011;24016;52.102;11.584;2023-03-05T07:01:46;7.03;;;3.70;;
38208;SDS011;24016;52.102;11.584;2023-03-05T07:04:12;7.97;;;3.33;;
38208;SDS011;24016;52.102;11.584;2023-03-05T07:06:39;9.93;;;3.28;;
38208;SDS011;24016;52.102;11.584;2023-03-05T07:09:06;6.78;;;3.10;;
38208;SDS011;24016;52.102;11.584;2023-03-05T07:11:32;8.80;;;3.80;;
38208;SDS011;24016;52.102;11.584;2023-03-05T07:13:58;6.45;;;3.80;;
38208;SDS011;24016;52.102;11.584;2023-03-05T07:16:26;8.73;;;3.70;;
38208;SDS011;24016;52.102;11.584;2023-03-05T07:18:55;7.75;;;3.22;;
38208;SDS011;24016;52.102;11.584;2023-03-05T07:21:22;9.52;;;3.58;;
38208;SDS011;24016;52.102;11.584;2023-03-05T07:23:51;10.23;;;3.45;;
38208;SDS011;24016;52.102;11.584;2023-03-05T07:26:18;7.20;;;3.42;;
38208;SDS011;24016;52.102;11.584;2023-03-05T07:28:44;6.72;;;3.40;;
38208;SDS011;24016;52.102;11.584;2023-03-05T07:31:11;6.35;;;3.45;;
38208;SDS011;24016;52.102;11.584;2023-03-05T07:33:38;8.38;;;3.67;;
38208;SDS011;24016;52.102;11.584;2023-03-05T07:36:07;7.47;;;3.00;;
38208;SDS011;24016;52.102;11.584;2023-03-05T07:38:34;5.95;;;3.42;;
38208;SDS011;24016;52.102;11.584;2023-03-05T07:41:01;5.85;;;3.42;;
38208;SDS011;24016;52.102;11.584;2023-03-05T07:43:31;8.80;;;3.58;;
38208;SDS011;24016;52.102;11.584;2023-03-05T07:45:56;10.02;;;3.40;;
38208;SDS011;24016;52.102;11.584;2023-03-05T07:48:22;8.23;;;3.28;;
38208;SDS011;24016;52.102;11.584;2023-03-05T07:50:48;5.25;;;3.47;;
38208;SDS011;24016;52.102;11.584;2023-03-05T07:53:14;6.57;;;3.63;;
38208;SDS011;24016;52.102;11.584;2023-03-05T07:55:41;5.80;;;3.72;;
38208;SDS011;24016;52.102;11.584;2023-03-05T07:58:10;10.38;;;3.88;;
38208;SDS011;24016;52.102;11.584;2023-03-05T08:00:36;7.57;;;3.60;;
38208;SDS011;24016;52.102;11.584;2023-03-05T08:03:02;8.77;;;4.22;;
38208;SDS011;24016;52.102;11.584;2023-03-05T08:05:28;8.18;;;4.13;;
38208;SDS011;24016;52.102;11.584;2023-03-05T08:07:54;6.35;;;4.13;;
38208;SDS011;24016;52.102;11.584;2023-03-05T08:10:19;8.90;;;4.20;;
38208;SDS011;24016;52.102;11.584;2023-03-05T08:12:45;7.40;;;3.90;;
38208;SDS011;24016;52.102;11.584;2023-03-05T08:15:10;8.73;;;4.43;;
38208;SDS011;24016;52.102;11.584;2023-03-05T08:17:36;10.65;;;4.53;;
38208;SDS011;24016;52.102;11.584;2023-03-05T08:20:05;6.95;;;4.60;;
38208;SDS011;24016;52.102;11.584;2023-03-05T08:22:34;8.50;;;3.50;;
38208;SDS011;24016;52.102;11.584;2023-03-05T08:25:04;6.25;;;3.78;;
38208;SDS011;24016;52.102;11.584;2023-03-05T08:27:30;8.32;;;3.97;;
38208;SDS011;24016;52.102;11.584;2023-03-05T08:29:56;9.27;;;5.13;;
38208;SDS011;24016;52.102;11.584;2023-03-05T08:32:22;8.90;;;5.10;;
38208;SDS011;24016;52.102;11.584;2023-03-05T08:34:48;10.07;;;5.78;;
38208;SDS011;24016;52.102;11.584;2023-03-05T08:37:13;9.45;;;5.65;;
38208;SDS011;24016;52.102;11.584;2023-03-05T08:39:39;8.10;;;5.30;;
38208;SDS011;24016;52.102;11.584;2023-03-05T08:42:05;11.93;;;5.45;;
38208;SDS011;24016;52.102;11.584;2023-03-05T08:44:31;9.80;;;5.82;;
38208;SDS011;24016;52.102;11.584;2023-03-05T08:46:56;9.43;;;5.15;;
38208;SDS011;24016;52.102;11.584;2023-03-05T08:49:22;9.65;;;5.13;;
38208;SDS011;24016;52.102;11.584;2023-03-05T08:51:47;9.70;;;5.25;;
38208;SDS011;24016;52.102;11.584;2023-03-05T08:54:13;8.57;;;5.07;;
38208;SDS011;24016;52.102;11.584;2023-03-05T08:56:39;10.52;;;6.10;;
38208;SDS011;24016;52.102;11.584;2023-03-05T08:59:04;8.38;;;3.90;;
38208;SDS011;24016;52.102;11.584;2023-03-05T09:01:33;9.70;;;4.38;;
38208;SDS011;24016;52.102;11.584;2023-03-05T09:03:58;4.70;;;3.05;;
38208;SDS011;24016;52.102;11.584;2023-03-05T09:06:25;6.95;;;3.38;;
38208;SDS011;24016;52.102;11.584;2023-03-05T09:08:51;5.68;;;3.05;;
38208;SDS011;24016;52.102;11.584;2023-03-05T09:11:17;5.57;;;3.03;;
38208;SDS011;24016;52.102;11.584;2023-03-05T09:13:43;5.95;;;2.95;;
38208;SDS011;24016;52.102;11.584;2023-03-05T09:16:13;6.35;;;2.97;;
38208;SDS011;24016;52.102;11.584;2023-03-05T09:18:40;8.63;;;3.30;;
38208;SDS011;24016;52.102;11.584;2023-03-05T09:21:07;9.70;;;3.75;;
38208;SDS011;24016;52.102;11.584;2023-03-05T09:23:36;5.95;;;2.70;;
38208;SDS011;24016;52.102;11.584;2023-03-05T09:26:03;6.00;;;2.47;;
38208;SDS011;24016;52.102;11.584;2023-03-05T09:28:30;4.43;;;2.33;;
38208;SDS011;24016;52.102;11.584;2023-03-05T09:30:56;4.90;;;2.50;;
38208;SDS011;24016;52.102;11.584;2023-03-05T09:33:21;4.75;;;2.35;;
38208;SDS011;24016;52.102;11.584;2023-03-05T09:35:47;3.65;;;1.80;;
38208;SDS011;24016;52.102;11.584;2023-03-05T09:38:12;5.65;;;1.90;;
38208;SDS011;24016;52.102;11.584;2023-03-05T09:40:47;5.03;;;1.85;;
38208;SDS011;24016;52.102;11.584;2023-03-05T09:43:25;4.53;;;2.22;;
38208;SDS011;24016;52.102;11.584;2023-03-05T09:46:16;5.68;;;2.60;;
38208;SDS011;24016;52.102;11.584;2023-03-05T09:49:38;6.78;;;3.00;;
38208;SDS011;24016;52.102;11.584;2023-03-05T09:51:42;5.82;;;2.97;;
38208;SDS011;24016;52.102;11.584;2023-03-05T09:56:55;5.53;;;2.60;;
38208;SDS011;24016;52.102;11.584;2023-03-05T09:59:30;9.20;;;3.38;;
38208;SDS011;24016;52.102;11.584;2023-03-05T10:02:18;8.70;;;3.22;;
38208;SDS011;24016;52.102;11.584;2023-03-05T10:07:40;5.82;;;2.95;;
38208;SDS011;24016;52.102;11.584;2023-03-05T10:10:19;8.07;;;2.35;;
38208;SDS011;24016;52.102;11.584;2023-03-05T10:13:12;9.32;;;2.65;;
38208;SDS011;24016;52.102;11.584;2023-03-05T10:15:57;8.02;;;2.80;;
38208;SDS011;24016;52.102;11.584;2023-03-05T10:18:56;4.43;;;2.47;;
38208;SDS011;24016;52.102;11.584;2023-03-05T10:24:17;5.40;;;2.25;;
38208;SDS011;24016;52.102;11.584;2023-03-05T10:26:51;4.88;;;2.65;;
38208;SDS011;24016;52.102;11.584;2023-03-05T10:36:06;4.80;;;1.70;;
38208;SDS011;24016;52.102;11.584;2023-03-05T10:38:04;5.45;;;1.95;;
38208;SDS011;24016;52.102;11.584;2023-03-05T10:40:48;3.10;;;2.00;;
38208;SDS011;24016;52.102;11.584;2023-03-05T10:43:19;4.68;;;2.03;;
38208;SDS011;24016;52.102;11.584;2023-03-05T10:45:52;4.03;;;1.90;;
38208;SDS011;24016;52.102;11.584;2023-03-05T10:48:24;5.07;;;1.92;;
38208;SDS011;24016;52.102;11.584;2023-03-05T10:50:55;1.90;;;1.42;;
38208;SDS011;24016;52.102;11.584;2023-03-05T10:53:31;2.88;;;1.30;;
38208;SDS011;24016;52.102;11.584;2023-03-05T10:56:04;3.45;;;1.38;;
38208;SDS011;24016;52.102;11.584;2023-03-05T10:58:30;3.03;;;1.52;;
38208;SDS011;24016;52.102;11.584;2023-03-05T11:01:19;2.25;;;1.48;;
38208;SDS011;24016;52.102;11.584;2023-03-05T11:09:28;2.22;;;1.60;;
38208;SDS011;24016;52.102;11.584;2023-03-05T11:14:43;4.47;;;1.90;;
38208;SDS011;24016;52.102;11.584;2023-03-05T11:17:21;4.40;;;2.30;;
38208;SDS011;24016;52.102;11.584;2023-03-05T11:19:56;5.03;;;2.00;;
38208;SDS011;24016;52.102;11.584;2023-03-05T11:22:42;3.30;;;2.25;;
38208;SDS011;24016;52.102;11.584;2023-03-05T11:25:25;2.88;;;1.63;;
38208;SDS011;24016;52.102;11.584;2023-03-05T11:27:53;4.75;;;2.13;;
38208;SDS011;24016;52.102;11.584;2023-03-05T11:30:23;4.82;;;2.20;;
38208;SDS011;24016;52.102;11.584;2023-03-05T11:35:35;5.70;;;2.40;;
38208;SDS011;24016;52.102;11.584;2023-03-05T11:38:02;4.57;;;2.42;;
38208;SDS011;24016;52.102;11.584;2023-03-05T11:40:30;5.40;;;2.78;;
38208;SDS011;24016;52.102;11.584;2023-03-05T11:43:00;7.25;;;2.88;;
38208;SDS011;24016;52.102;11.584;2023-03-05T11:45:28;7.28;;;2.40;;
38208;SDS011;24016;52.102;11.584;2023-03-05T11:48:05;3.33;;;1.90;;
38208;SDS011;24016;52.102;11.584;2023-03-05T11:50:35;6.45;;;2.10;;
38208;SDS011;24016;52.102;11.584;2023-03-05T11:55:37;2.63;;;2.05;;
38208;SDS011;24016;52.102;11.584;2023-03-05T12:00:54;3.15;;;1.90;;
38208;SDS011;24016;52.102;11.584;2023-03-05T12:03:21;4.10;;;2.00;;
38208;SDS011;24016;52.102;11.584;2023-03-05T12:08:43;3.42;;;1.80;;
38208;SDS011;24016;52.102;11.584;2023-03-05T12:13:49;4.75;;;1.75;;
38208;SDS011;24016;52.102;11.584;2023-03-05T12:16:26;3.30;;;1.50;;
38208;SDS011;24016;52.102;11.584;2023-03-05T12:21:58;3.78;;;1.50;;
38208;SDS011;24016;52.102;11.584;2023-03-05T12:26:55;2.50;;;1.00;;
38208;SDS011;24016;52.102;11.584;2023-03-05T12:32:01;2.63;;;1.30;;
38208;SDS011;24016;52.102;11.584;2023-03-05T12:39:49;3.10;;;1.10;;
38208;SDS011;24016;52.102;11.584;2023-03-05T12:47:41;3.38;;;1.10;;
38208;SDS011;24016;52.102;11.584;2023-03-05T12:52:52;3.53;;;1.20;;
38208;SDS011;24016;52.102;11.584;2023-03-05T13:00:41;2.15;;;1.20;;
38208;SDS011;24016;52.102;11.584;2023-03-05T13:03:11;1.88;;;0.85;;
38208;SDS011;24016;52.102;11.584;2023-03-05T13:05:54;2.53;;;0.88;;
38208;SDS011;24016;52.102;11.584;2023-03-05T13:08:23;3.30;;;0.90;;
38208;SDS011;24016;52.102;11.584;2023-03-05T13:10:54;1.52;;;0.77;;
38208;SDS011;24016;52.102;11.584;2023-03-05T13:13:24;2.70;;;1.73;;
38208;SDS011;24016;52.102;11.584;2023-03-05T13:15:51;2.10;;;1.02;;
38208;SDS011;24016;52.102;11.584;2023-03-05T13:20:44;1.60;;;1.10;;
38208;SDS011;24016;52.102;11.584;2023-03-05T13:23:25;1.60;;;0.90;;
38208;SDS011;24016;52.102;11.584;2023-03-05T13:28:37;1.35;;;1.08;;
38208;SDS011;24016;52.102;11.584;2023-03-05T13:31:11;2.50;;;1.50;;
38208;SDS011;24016;52.102;11.584;2023-03-05T13:33:39;3.42;;;1.50;;
38208;SDS011;24016;52.102;11.584;2023-03-05T13:36:05;3.40;;;1.40;;
38208;SDS011;24016;52.102;11.584;2023-03-05T13:38:32;4.28;;;1.63;;
38208;SDS011;24016;52.102;11.584;2023-03-05T13:41:04;5.57;;;1.75;;
38208;SDS011;24016;52.102;11.584;2023-03-05T13:43:31;3.70;;;1.65;;
38208;SDS011;24016;52.102;11.584;2023-03-05T13:45:57;4.20;;;2.00;;
38208;SDS011;24016;52.102;11.584;2023-03-05T13:48:24;3.80;;;1.90;;
38208;SDS011;24016;52.102;11.584;2023-03-05T13:50:57;5.35;;;1.77;;
38208;SDS011;24016;52.102;11.584;2023-03-05T13:55:54;5.93;;;2.40;;
38208;SDS011;24016;52.102;11.584;2023-03-05T14:06:40;2.75;;;1.70;;
38208;SDS011;24016;52.102;11.584;2023-03-05T14:09:18;3.13;;;1.73;;
38208;SDS011;24016;52.102;11.584;2023-03-05T14:11:59;2.78;;;1.50;;
38208;SDS011;24016;52.102;11.584;2023-03-05T14:14:44;5.32;;;1.70;;
38208;SDS011;24016;52.102;11.584;2023-03-05T14:20:15;2.47;;;1.20;;
38208;SDS011;24016;52.102;11.584;2023-03-05T14:22:53;4.20;;;1.67;;
38208;SDS011;24016;52.102;11.584;2023-03-05T14:25:30;4.38;;;1.52;;
38208;SDS011;24016;52.102;11.584;2023-03-05T14:28:03;2.72;;;1.50;;
38208;SDS011;24016;52.102;11.584;2023-03-05T14:30:52;3.33;;;1.52;;
38208;SDS011;24016;52.102;11.584;2023-03-05T14:33:22;3.22;;;1.40;;
38208;SDS011;24016;52.102;11.584;2023-03-05T14:35:51;2.05;;;1.15;;
38208;SDS011;24016;52.102;11.584;2023-03-05T14:38:18;4.47;;;1.50;;
38208;SDS011;24016;52.102;11.584;2023-03-05T14:40:47;3.38;;;1.58;;
38208;SDS011;24016;52.102;11.584;2023-03-05T14:43:13;5.88;;;1.88;;
38208;SDS011;24016;52.102;11.584;2023-03-05T14:45:39;4.22;;;1.42;;
38208;SDS011;24016;52.102;11.584;2023-03-05T14:48:08;3.72;;;1.38;;
38208;SDS011;24016;52.102;11.584;2023-03-05T14:50:43;3.72;;;1.40;;
38208;SDS011;24016;52.102;11.584;2023-03-05T14:53:23;4.22;;;1.27;;
38208;SDS011;24016;52.102;11.584;2023-03-05T14:55:59;3.63;;;1.40;;
38208;SDS011;24016;52.102;11.584;2023-03-05T14:58:29;3.13;;;1.40;;
38208;SDS011;24016;52.102;11.584;2023-03-05T15:00:56;2.25;;;1.20;;
38208;SDS011;24016;52.102;11.584;2023-03-05T15:03:22;4.68;;;1.40;;
38208;SDS011;24016;52.102;11.584;2023-03-05T15:05:50;4.07;;;1.40;;
38208;SDS011;24016;52.102;11.584;2023-03-05T15:08:21;2.72;;;1.42;;
38208;SDS011;24016;52.102;11.584;2023-03-05T15:10:50;3.60;;;1.48;;
38208;SDS011;24016;52.102;11.584;2023-03-05T15:13:16;3.28;;;1.67;;
38208;SDS011;24016;52.102;11.584;2023-03-05T15:15:42;3.83;;;1.70;;
38208;SDS011;24016;52.102;11.584;2023-03-05T15:18:11;2.67;;;1.23;;
38208;SDS011;24016;52.102;11.584;2023-03-05T15:20:37;2.58;;;1.50;;
38208;SDS011;24016;52.102;11.584;2023-03-05T15:23:04;4.43;;;1.45;;
38208;SDS011;24016;52.102;11.584;2023-03-05T15:25:30;3.55;;;1.38;;
38208;SDS011;24016;52.102;11.584;2023-03-05T15:27:56;5.15;;;1.83;;
38208;SDS011;24016;52.102;11.584;2023-03-05T15:30:23;3.63;;;1.58;;
38208;SDS011;24016;52.102;11.584;2023-03-05T15:32:55;6.47;;;1.85;;
38208;SDS011;24016;52.102;11.584;2023-03-05T15:35:21;3.25;;;1.65;;
38208;SDS011;24016;52.102;11.584;2023-03-05T15:37:48;4.90;;;2.20;;
38208;SDS011;24016;52.102;11.584;2023-03-05T15:40:14;7.03;;;2.30;;
38208;SDS011;24016;52.102;11.584;2023-03-05T15:42:39;4.65;;;2.50;;
38208;SDS011;24016;52.102;11.584;2023-03-05T15:45:05;4.65;;;2.78;;
38208;SDS011;24016;52.102;11.584;2023-03-05T15:47:31;4.07;;;2.47;;
38208;SDS011;24016;52.102;11.584;2023-03-05T15:49:57;3.80;;;2.72;;
38208;SDS011;24016;52.102;11.584;2023-03-05T15:52:22;5.22;;;3.40;;
38208;SDS011;24016;52.102;11.584;2023-03-05T15:54:48;7.78;;;3.22;;
38208;SDS011;24016;52.102;11.584;2023-03-05T15:57:14;5.80;;;3.25;;
38208;SDS011;24016;52.102;11.584;2023-03-05T15:59:40;5.15;;;3.17;;
38208;SDS011;24016;52.102;11.584;2023-03-05T16:02:06;5.63;;;2.88;;
38208;SDS011;24016;52.102;11.584;2023-03-05T16:04:31;6.57;;;3.28;;